createdAt,value
2022-12-23T00:00:28.101Z,8.20
2022-12-23T00:02:54.840Z,8.23
2022-12-23T00:05:21.540Z,8.16
2022-12-23T00:07:48.076Z,8.30
2022-12-23T00:10:14.763Z,8.30
2022-12-23T00:12:59.851Z,8.25
2022-12-23T00:15:26.386Z,8.29
2022-12-23T00:17:52.932Z,8.31
2022-12-23T00:20:19.544Z,8.36
2022-12-23T00:23:04.640Z,8.36
2022-12-23T00:25:42.117Z,8.38
2022-12-23T00:28:11.765Z,8.34
2022-12-23T00:30:45.889Z,8.35
2022-12-23T00:33:13.935Z,8.46
2022-12-23T00:35:40.624Z,8.51
2022-12-23T00:38:07.151Z,8.61
2022-12-23T00:40:52.342Z,8.64
2022-12-23T00:43:19.051Z,8.62
2022-12-23T00:45:45.919Z,8.60
2022-12-23T00:48:31.093Z,8.66
2022-12-23T00:50:57.820Z,8.66
2022-12-23T00:53:24.348Z,8.64
2022-12-23T00:55:50.986Z,8.66
2022-12-23T00:58:19.400Z,8.67
2022-12-23T01:01:05.409Z,8.61
2022-12-23T01:03:51.104Z,8.59
2022-12-23T01:06:17.714Z,8.61
2022-12-23T01:08:44.343Z,8.60
2022-12-23T01:11:11.916Z,8.60
2022-12-23T01:13:38.908Z,8.58
2022-12-23T01:16:13.321Z,8.59
2022-12-23T01:18:43.564Z,8.52
2022-12-23T01:21:10.847Z,8.56
2022-12-23T01:23:37.634Z,8.55
2022-12-23T01:26:06.795Z,8.52
2022-12-23T01:28:34.350Z,8.59
2022-12-23T01:31:03.320Z,8.60
2022-12-23T01:33:31.914Z,8.65
2022-12-23T01:36:03.454Z,8.71
2022-12-23T01:38:30.611Z,8.71
2022-12-23T01:40:57.229Z,8.71
2022-12-23T01:43:41.850Z,8.64
2022-12-23T01:46:08.462Z,8.57
2022-12-23T01:48:35.125Z,8.59
2022-12-23T01:51:08.651Z,8.65
2022-12-23T01:53:41.577Z,8.62
2022-12-23T01:56:13.551Z,8.66
2022-12-23T01:58:46.895Z,8.79
2022-12-23T02:01:32.310Z,8.78
2022-12-23T02:04:03.848Z,8.77
2022-12-23T02:06:59.722Z,8.79
2022-12-23T02:09:37.547Z,8.85
2022-12-23T02:12:28.371Z,8.93
2022-12-23T02:15:44.668Z,8.97
2022-12-23T02:18:30.507Z,8.96
2022-12-23T02:21:22.725Z,9.00
2022-12-23T02:24:07.217Z,9.00
2022-12-23T02:26:59.993Z,9.05
2022-12-23T02:29:54.618Z,9.06
2022-12-23T02:32:53.253Z,9.08
2022-12-23T02:35:37.250Z,9.13
2022-12-23T02:39:02.443Z,9.17
2022-12-23T02:41:57.493Z,9.11
2022-12-23T02:44:39.709Z,9.11
2022-12-23T02:47:21.255Z,9.06
2022-12-23T02:49:56.969Z,9.06
2022-12-23T02:52:29.567Z,9.08
2022-12-23T02:55:05.086Z,9.05
2022-12-23T02:57:35.836Z,9.08
2022-12-23T03:00:03.745Z,9.03
2022-12-23T03:02:36.195Z,9.06
2022-12-23T03:05:03.223Z,9.09
2022-12-23T03:07:40.590Z,9.10
2022-12-23T03:10:25.487Z,9.01
2022-12-23T03:13:09.298Z,9.01
2022-12-23T03:15:35.760Z,9.09
2022-12-23T03:18:33.340Z,9.12
2022-12-23T03:21:14.592Z,9.10
2022-12-23T03:23:50.536Z,9.11
2022-12-23T03:26:26.594Z,9.14
2022-12-23T03:29:03.493Z,9.18
2022-12-23T03:31:33.231Z,9.15
2022-12-23T03:34:05.449Z,9.13
2022-12-23T03:36:37.554Z,9.19
2022-12-23T03:39:07.706Z,9.17
2022-12-23T03:41:40.798Z,9.17
2022-12-23T03:44:13.513Z,9.11
2022-12-23T03:47:05.872Z,9.03
2022-12-23T03:49:38.847Z,9.06
2022-12-23T03:52:21.454Z,9.09
2022-12-23T03:54:57.779Z,9.06
2022-12-23T03:57:49.937Z,9.03
2022-12-23T04:00:16.687Z,9.02
2022-12-23T04:02:57.478Z,9.02
2022-12-23T04:05:39.285Z,9.09
2022-12-23T04:08:18.603Z,9.02
2022-12-23T04:10:46.162Z,9.03
2022-12-23T04:13:14.920Z,8.99
2022-12-23T04:15:42.452Z,9.06
2022-12-23T04:18:10.486Z,9.05
2022-12-23T04:20:37.363Z,9.06
2022-12-23T04:23:04.265Z,9.09
2022-12-23T04:25:30.850Z,9.10
2022-12-23T04:27:57.370Z,9.08
2022-12-23T04:30:28.129Z,9.14
2022-12-23T04:33:00.420Z,9.13
2022-12-23T04:35:26.950Z,9.17
2022-12-23T04:37:53.472Z,9.17
2022-12-23T04:40:20.077Z,9.17
2022-12-23T04:42:46.588Z,9.19
2022-12-23T04:45:13.197Z,9.19
2022-12-23T04:47:40.612Z,9.14
2022-12-23T04:50:08.173Z,9.12
2022-12-23T04:52:34.699Z,9.12
2022-12-23T04:55:01.203Z,9.10
2022-12-23T04:57:27.831Z,9.10
2022-12-23T04:59:54.396Z,9.10
2022-12-23T05:02:21.024Z,9.08
2022-12-23T05:04:47.651Z,9.09
2022-12-23T05:07:14.198Z,9.13
2022-12-23T05:09:40.685Z,9.12
2022-12-23T05:12:07.219Z,9.10
2022-12-23T05:14:33.778Z,9.09
2022-12-23T05:17:06.867Z,9.13
2022-12-23T05:19:34.062Z,9.18
2022-12-23T05:22:00.655Z,9.17
2022-12-23T05:24:27.188Z,9.16
2022-12-23T05:26:59.703Z,9.12
2022-12-23T05:29:27.479Z,9.17
2022-12-23T05:31:54.217Z,9.19
2022-12-23T05:34:21.263Z,9.13
2022-12-23T05:36:47.781Z,9.17
2022-12-23T05:39:14.331Z,9.17
2022-12-23T05:41:40.850Z,9.13
2022-12-23T05:44:07.603Z,9.12
2022-12-23T05:46:34.440Z,9.09
2022-12-23T05:49:01.037Z,9.10
2022-12-23T05:51:27.568Z,9.10
2022-12-23T05:53:54.115Z,9.17
2022-12-23T05:56:20.615Z,9.13
2022-12-23T05:58:47.100Z,9.18
2022-12-23T06:01:14.216Z,9.21
2022-12-23T06:03:40.844Z,9.22
2022-12-23T06:06:07.605Z,9.23
2022-12-23T06:08:34.093Z,9.20
2022-12-23T06:11:00.604Z,9.17
2022-12-23T06:13:27.123Z,9.19
2022-12-23T06:15:53.678Z,9.24
2022-12-23T06:18:20.229Z,9.24
2022-12-23T06:20:47.869Z,9.23
2022-12-23T06:23:14.526Z,9.23
2022-12-23T06:25:41.044Z,9.27
2022-12-23T06:28:08.010Z,9.23
2022-12-23T06:30:34.973Z,9.24
2022-12-23T06:33:01.992Z,9.25
2022-12-23T06:35:28.541Z,9.20
2022-12-23T06:38:05.486Z,9.21
2022-12-23T06:40:35.331Z,9.25
2022-12-23T06:43:01.854Z,9.17
2022-12-23T06:45:28.356Z,9.17
2022-12-23T06:47:54.905Z,9.11
2022-12-23T06:50:21.414Z,9.17
2022-12-23T06:52:48.980Z,9.21
2022-12-23T06:55:15.625Z,9.22
2022-12-23T06:57:42.170Z,9.17
2022-12-23T07:00:09.176Z,9.17
2022-12-23T07:02:35.875Z,9.17
2022-12-23T07:05:02.479Z,9.15
2022-12-23T07:07:29.091Z,9.19
2022-12-23T07:09:56.768Z,9.18
2022-12-23T07:12:23.272Z,9.12
2022-12-23T07:14:49.757Z,9.13
2022-12-23T07:17:16.393Z,9.11
2022-12-23T07:19:43.017Z,9.03
2022-12-23T07:22:12.418Z,8.96
2022-12-23T07:24:38.918Z,8.90
2022-12-23T07:27:05.532Z,8.86
2022-12-23T07:29:32.030Z,8.78
2022-12-23T07:31:58.620Z,8.83
2022-12-23T07:34:25.474Z,8.80
2022-12-23T07:36:52.100Z,8.88
2022-12-23T07:39:18.643Z,8.91
2022-12-23T07:41:45.221Z,8.97
2022-12-23T07:44:13.133Z,8.98
2022-12-23T07:46:40.075Z,9.01
2022-12-23T07:49:06.630Z,9.09
2022-12-23T07:51:34.228Z,9.18
2022-12-23T07:54:00.831Z,9.22
2022-12-23T07:56:27.397Z,9.34
2022-12-23T07:58:54.580Z,9.43
2022-12-23T08:01:21.770Z,9.43
2022-12-23T08:03:48.921Z,9.42
2022-12-23T08:06:16.572Z,9.42
2022-12-23T08:08:45.568Z,9.41
2022-12-23T08:11:13.878Z,9.48
2022-12-23T08:13:42.701Z,9.49
2022-12-23T08:16:10.548Z,9.46
2022-12-23T08:18:38.841Z,9.45
2022-12-23T08:21:08.157Z,9.42
2022-12-23T08:23:34.961Z,9.43
2022-12-23T08:26:04.414Z,9.49
2022-12-23T08:28:31.815Z,9.53
2022-12-23T08:31:09.257Z,9.55
2022-12-23T08:33:38.167Z,9.57
2022-12-23T08:36:06.617Z,9.59
2022-12-23T08:38:33.976Z,9.53
2022-12-23T08:41:00.725Z,9.56
2022-12-23T08:43:33.563Z,9.63
2022-12-23T08:46:02.416Z,9.61
2022-12-23T08:48:29.239Z,9.67
2022-12-23T08:50:55.826Z,9.63
2022-12-23T08:53:22.372Z,9.60
2022-12-23T08:55:49.008Z,9.52
2022-12-23T08:58:15.774Z,9.55
2022-12-23T09:00:42.378Z,9.57
2022-12-23T09:03:09.164Z,9.66
2022-12-23T09:05:40.011Z,9.67
2022-12-23T09:08:06.955Z,9.73
2022-12-23T09:10:34.118Z,9.81
2022-12-23T09:13:01.710Z,9.87
2022-12-23T09:15:30.650Z,9.90
2022-12-23T09:17:57.731Z,9.93
2022-12-23T09:20:24.521Z,10.03
2022-12-23T09:22:51.089Z,10.08
2022-12-23T09:25:17.770Z,10.08
2022-12-23T09:27:44.326Z,10.10
2022-12-23T09:30:11.543Z,10.27
2022-12-23T09:32:38.065Z,10.34
2022-12-23T09:35:05.317Z,10.36
2022-12-23T09:37:31.907Z,10.41
2022-12-23T09:39:58.916Z,10.54
2022-12-23T09:42:46.953Z,10.62
2022-12-23T09:45:26.031Z,10.66
2022-12-23T09:47:56.500Z,10.58
2022-12-23T09:50:32.293Z,10.50
2022-12-23T09:53:05.597Z,10.47
2022-12-23T09:55:46.075Z,10.50
2022-12-23T09:58:31.797Z,10.52
2022-12-23T10:01:09.466Z,10.56
2022-12-23T10:04:10.274Z,10.59
2022-12-23T10:06:39.454Z,10.63
2022-12-23T10:09:07.526Z,10.68
2022-12-23T10:11:46.827Z,10.77
2022-12-23T10:14:21.074Z,10.70
2022-12-23T10:16:56.920Z,10.80
2022-12-23T10:19:34.182Z,10.90
2022-12-23T10:22:10.222Z,10.98
2022-12-23T10:24:43.438Z,11.04
2022-12-23T10:27:34.245Z,10.96
2022-12-23T10:30:26.984Z,10.95
2022-12-23T10:33:07.057Z,10.93
2022-12-23T10:35:44.346Z,10.75
2022-12-23T10:38:46.693Z,10.74
2022-12-23T10:41:22.467Z,10.72
2022-12-23T10:44:23.052Z,10.71
2022-12-23T10:47:17.132Z,10.71
2022-12-23T10:49:53.628Z,10.61
2022-12-23T10:52:32.582Z,10.70
2022-12-23T10:54:59.312Z,10.79
2022-12-23T10:57:26.089Z,10.89
2022-12-23T10:59:52.877Z,10.88
2022-12-23T11:02:49.736Z,10.94
2022-12-23T11:05:27.093Z,10.91
2022-12-23T11:07:55.079Z,10.95
2022-12-23T11:10:28.478Z,10.99
2022-12-23T11:12:55.443Z,10.95
2022-12-23T11:15:33.139Z,10.85
2022-12-23T11:18:02.453Z,10.89
2022-12-23T11:20:30.112Z,10.83
2022-12-23T11:23:01.733Z,10.79
2022-12-23T11:25:31.326Z,10.84
2022-12-23T11:28:04.777Z,10.83
2022-12-23T11:30:35.750Z,10.89
2022-12-23T11:33:03.456Z,10.89
2022-12-23T11:35:33.409Z,10.86
2022-12-23T11:38:01.733Z,10.85
2022-12-23T11:40:33.897Z,10.77
2022-12-23T11:43:07.459Z,10.78
2022-12-23T11:45:37.669Z,10.73
2022-12-23T11:48:05.855Z,10.67
2022-12-23T11:50:40.362Z,10.59
2022-12-23T11:53:24.494Z,10.64
2022-12-23T11:56:09.853Z,10.60
2022-12-23T11:58:55.305Z,10.61
2022-12-23T12:01:25.092Z,10.58
2022-12-23T12:03:59.074Z,10.56
2022-12-23T12:06:27.232Z,10.47
2022-12-23T12:08:58.371Z,10.52
2022-12-23T12:11:33.403Z,10.52
2022-12-23T12:14:03.781Z,10.55
2022-12-23T12:16:42.269Z,10.54
2022-12-23T12:19:38.829Z,10.49
2022-12-23T12:22:16.483Z,10.51
2022-12-23T12:24:50.537Z,10.44
2022-12-23T12:27:18.504Z,10.51
2022-12-23T12:30:04.432Z,10.58
2022-12-23T12:33:05.544Z,10.50
2022-12-23T12:35:44.180Z,10.49
2022-12-23T12:38:14.720Z,10.48
2022-12-23T12:40:47.564Z,10.40
2022-12-23T12:43:27.691Z,10.48
2022-12-23T12:46:06.329Z,10.49
2022-12-23T12:48:47.246Z,10.45
2022-12-23T12:51:43.700Z,10.50
2022-12-23T12:54:27.499Z,10.45
2022-12-23T12:56:58.571Z,10.51
2022-12-23T12:59:28.449Z,10.56
2022-12-23T13:02:16.657Z,10.59
2022-12-23T13:05:01.723Z,10.60
2022-12-23T13:07:53.435Z,10.60
2022-12-23T13:10:41.729Z,10.59
2022-12-23T13:13:23.917Z,10.66
2022-12-23T13:16:02.750Z,10.68
2022-12-23T13:18:35.775Z,10.69
2022-12-23T13:21:14.471Z,10.61
2022-12-23T13:23:46.458Z,10.66
2022-12-23T13:26:26.951Z,10.67
2022-12-23T13:29:21.527Z,10.66
2022-12-23T13:31:54.028Z,10.61
2022-12-23T13:34:41.990Z,10.47
2022-12-23T13:37:14.321Z,10.51
2022-12-23T13:40:05.332Z,10.42
2022-12-23T13:42:40.216Z,10.42
2022-12-23T13:45:13.958Z,10.45
2022-12-23T13:48:05.521Z,10.49
2022-12-23T13:50:55.365Z,10.52
2022-12-23T13:53:47.907Z,10.41
2022-12-23T13:56:35.314Z,10.44
2022-12-23T13:59:01.893Z,10.47
2022-12-23T14:01:36.405Z,10.48
2022-12-23T14:04:35.834Z,10.47
2022-12-23T14:07:21.927Z,10.44
2022-12-23T14:09:56.155Z,10.45
2022-12-23T14:12:28.596Z,10.38
2022-12-23T14:15:22.720Z,10.43
2022-12-23T14:18:09.115Z,10.48
2022-12-23T14:20:51.038Z,10.44
2022-12-23T14:23:40.590Z,10.42
2022-12-23T14:26:22.312Z,10.43
2022-12-23T14:29:15.028Z,10.36
2022-12-23T14:31:45.314Z,10.32
2022-12-23T14:34:33.339Z,10.33
2022-12-23T14:37:15.243Z,10.29
2022-12-23T14:39:42.424Z,10.30
2022-12-23T14:42:14.977Z,10.26
2022-12-23T14:44:46.338Z,10.26
2022-12-23T14:47:35.184Z,10.26
2022-12-23T14:50:32.959Z,10.19
2022-12-23T14:53:01.814Z,10.24
2022-12-23T14:55:31.208Z,10.22
2022-12-23T14:58:17.057Z,10.23
2022-12-23T15:00:55.055Z,10.17
2022-12-23T15:03:22.517Z,10.15
2022-12-23T15:05:50.950Z,10.12
2022-12-23T15:08:37.685Z,10.08
2022-12-23T15:11:05.734Z,10.06
2022-12-23T15:13:33.279Z,10.04
2022-12-23T15:16:01.933Z,10.05
2022-12-23T15:18:29.097Z,10.06
2022-12-23T15:21:13.485Z,10.08
2022-12-23T15:23:48.836Z,10.06
2022-12-23T15:26:15.483Z,10.03
2022-12-23T15:28:42.607Z,10.05
2022-12-23T15:31:38.193Z,10.02
2022-12-23T15:34:16.800Z,10.05
2022-12-23T15:36:46.176Z,10.07
2022-12-23T15:39:40.627Z,10.00
2022-12-23T15:42:46.200Z,10.05
2022-12-23T15:45:36.541Z,10.07
2022-12-23T15:48:05.134Z,10.08
2022-12-23T15:50:40.437Z,10.07
2022-12-23T15:53:09.766Z,10.12
2022-12-23T15:55:40.457Z,10.12
2022-12-23T15:58:07.236Z,10.08
2022-12-23T16:00:39.816Z,10.04
2022-12-23T16:03:21.691Z,10.08
2022-12-23T16:05:48.590Z,10.01
2022-12-23T16:08:23.068Z,10.04
2022-12-23T16:11:15.585Z,10.07
2022-12-23T16:14:01.658Z,10.06
2022-12-23T16:16:33.421Z,10.04
2022-12-23T16:19:00.358Z,10.02
2022-12-23T16:21:34.975Z,9.97
2022-12-23T16:24:07.260Z,10.03
2022-12-23T16:26:41.163Z,10.02
2022-12-23T16:29:10.899Z,10.06
2022-12-23T16:31:39.687Z,10.06
2022-12-23T16:34:08.197Z,10.08
2022-12-23T16:36:36.554Z,10.01
2022-12-23T16:39:06.704Z,9.94
2022-12-23T16:41:34.046Z,9.95
2022-12-23T16:44:01.109Z,9.93
2022-12-23T16:46:28.295Z,10.00
2022-12-23T16:49:04.786Z,10.04
2022-12-23T16:51:33.890Z,10.05
2022-12-23T16:54:01.519Z,10.05
2022-12-23T16:56:35.514Z,10.03
2022-12-23T16:59:02.794Z,10.00
2022-12-23T17:01:36.240Z,9.98
2022-12-23T17:04:04.475Z,10.01
2022-12-23T17:06:31.085Z,9.99
2022-12-23T17:08:57.740Z,10.01
2022-12-23T17:11:35.601Z,9.92
2022-12-23T17:14:06.714Z,9.96
2022-12-23T17:16:34.513Z,10.06
2022-12-23T17:19:01.160Z,10.00
2022-12-23T17:21:33.855Z,10.08
2022-12-23T17:24:06.322Z,10.01
2022-12-23T17:26:33.071Z,9.97
2022-12-23T17:28:59.611Z,10.02
2022-12-23T17:31:27.141Z,9.99
2022-12-23T17:33:54.462Z,9.91
2022-12-23T17:36:21.165Z,9.92
2022-12-23T17:38:47.724Z,9.86
2022-12-23T17:41:26.676Z,9.86
2022-12-23T17:43:53.250Z,9.93
2022-12-23T17:46:20.189Z,9.99
2022-12-23T17:48:47.811Z,9.89
2022-12-23T17:51:17.538Z,9.86
2022-12-23T17:53:45.557Z,9.90
2022-12-23T17:56:18.063Z,9.93
2022-12-23T17:58:46.076Z,9.91
2022-12-23T18:01:23.069Z,9.91
2022-12-23T18:03:49.899Z,10.00
2022-12-23T18:06:18.538Z,9.99
2022-12-23T18:08:45.582Z,9.99
2022-12-23T18:11:33.229Z,9.96
2022-12-23T18:14:00.708Z,9.93
2022-12-23T18:16:27.474Z,9.94
2022-12-23T18:18:54.180Z,9.97
2022-12-23T18:21:23.964Z,9.92
2022-12-23T18:23:51.877Z,9.93
2022-12-23T18:26:18.397Z,9.91
2022-12-23T18:28:44.962Z,9.94
2022-12-23T18:31:21.603Z,9.92
2022-12-23T18:33:48.571Z,9.88
2022-12-23T18:36:30.509Z,9.91
2022-12-23T18:38:57.557Z,9.88
2022-12-23T18:41:25.302Z,9.93
2022-12-23T18:43:53.291Z,9.90
2022-12-23T18:46:22.765Z,9.92
2022-12-23T18:48:49.501Z,9.97
2022-12-23T18:51:17.828Z,9.99
2022-12-23T18:53:45.149Z,9.93
2022-12-23T18:56:16.137Z,9.93
2022-12-23T18:58:43.075Z,9.94
2022-12-23T19:01:14.860Z,9.94
2022-12-23T19:03:41.838Z,9.91
2022-12-23T19:06:11.700Z,9.94
2022-12-23T19:08:38.572Z,9.88
2022-12-23T19:11:18.076Z,9.96
2022-12-23T19:13:45.244Z,9.89
2022-12-23T19:16:18.011Z,9.96
2022-12-23T19:18:45.592Z,9.93
2022-12-23T19:21:12.496Z,9.94
2022-12-23T19:23:40.868Z,9.96
2022-12-23T19:26:10.072Z,9.98
2022-12-23T19:28:38.120Z,9.93
2022-12-23T19:31:12.352Z,10.01
2022-12-23T19:33:40.246Z,9.97
2022-12-23T19:36:15.687Z,9.90
2022-12-23T19:38:42.375Z,9.97
2022-12-23T19:41:09.529Z,9.94
2022-12-23T19:43:39.709Z,9.90
2022-12-23T19:46:09.292Z,9.78
2022-12-23T19:48:37.022Z,9.72
2022-12-23T19:51:10.016Z,9.73
2022-12-23T19:53:36.803Z,9.73
2022-12-23T19:56:21.144Z,9.79
2022-12-23T19:58:49.135Z,9.77
2022-12-23T20:01:18.787Z,9.73
2022-12-23T20:03:47.599Z,9.66
2022-12-23T20:06:19.742Z,9.62
2022-12-23T20:08:48.042Z,9.61
2022-12-23T20:11:20.401Z,9.64
2022-12-23T20:13:54.056Z,9.64
2022-12-23T20:16:21.424Z,9.60
2022-12-23T20:18:48.020Z,9.62
2022-12-23T20:21:14.890Z,9.59
2022-12-23T20:23:41.568Z,9.61
2022-12-23T20:26:12.490Z,9.55
2022-12-23T20:28:39.007Z,9.59
2022-12-23T20:31:07.607Z,9.65
2022-12-23T20:33:36.281Z,9.55
2022-12-23T20:36:03.494Z,9.48
2022-12-23T20:38:38.651Z,9.48
2022-12-23T20:41:10.016Z,9.41
2022-12-23T20:43:37.022Z,9.40
2022-12-23T20:46:04.844Z,9.34
2022-12-23T20:48:34.285Z,9.39
2022-12-23T20:51:23.765Z,9.41
2022-12-23T20:53:52.394Z,9.43
2022-12-23T20:56:21.348Z,9.46
2022-12-23T20:58:55.128Z,9.44
2022-12-23T21:01:42.043Z,9.34
2022-12-23T21:04:15.655Z,9.30
2022-12-23T21:06:43.301Z,9.27
2022-12-23T21:09:12.997Z,9.33
2022-12-23T21:11:43.016Z,9.36
2022-12-23T21:14:10.770Z,9.26
2022-12-23T21:16:38.717Z,9.28
2022-12-23T21:19:13.388Z,9.29
2022-12-23T21:21:40.032Z,9.27
2022-12-23T21:24:06.668Z,9.24
2022-12-23T21:26:34.855Z,9.21
2022-12-23T21:29:03.987Z,9.25
2022-12-23T21:31:32.552Z,9.17
2022-12-23T21:33:59.221Z,9.13
2022-12-23T21:36:31.352Z,9.13
2022-12-23T21:38:58.394Z,9.20
2022-12-23T21:41:28.551Z,9.17
2022-12-23T21:43:59.727Z,9.14
2022-12-23T21:46:28.402Z,9.06
2022-12-23T21:48:56.798Z,8.99
2022-12-23T21:51:26.523Z,8.86
2022-12-23T21:53:55.162Z,8.80
2022-12-23T21:56:24.408Z,8.81
2022-12-23T21:58:57.861Z,8.71
2022-12-23T22:01:25.517Z,8.63
2022-12-23T22:03:53.290Z,8.62
2022-12-23T22:06:22.631Z,8.59
2022-12-23T22:08:49.769Z,8.46
2022-12-23T22:11:24.838Z,8.35
2022-12-23T22:13:52.482Z,8.27
2022-12-23T22:16:22.059Z,8.16
2022-12-23T22:18:49.587Z,8.05
2022-12-23T22:21:19.065Z,8.07
2022-12-23T22:23:46.959Z,7.98
2022-12-23T22:26:23.906Z,7.90
2022-12-23T22:28:53.533Z,7.85
2022-12-23T22:31:43.234Z,7.81
2022-12-23T22:34:13.876Z,7.77
2022-12-23T22:36:40.415Z,7.72
2022-12-23T22:39:07.939Z,7.64
2022-12-23T22:41:35.002Z,7.51
2022-12-23T22:44:01.587Z,7.49
2022-12-23T22:46:28.660Z,7.41
2022-12-23T22:48:56.335Z,7.33
2022-12-23T22:51:25.343Z,7.30
2022-12-23T22:53:52.199Z,7.28
2022-12-23T22:56:20.685Z,7.27
2022-12-23T22:58:47.907Z,7.17
2022-12-23T23:01:35.336Z,7.20
2022-12-23T23:04:03.591Z,7.14
2022-12-23T23:06:33.118Z,7.08
2022-12-23T23:09:00.104Z,7.07
2022-12-23T23:11:27.791Z,7.02
2022-12-23T23:13:55.256Z,6.95
2022-12-23T23:16:23.419Z,6.98
2022-12-23T23:18:50.983Z,6.95
2022-12-23T23:21:17.737Z,7.04
2022-12-23T23:23:44.282Z,6.90
2022-12-23T23:26:11.263Z,6.82
2022-12-23T23:28:39.407Z,6.85
2022-12-23T23:31:39.625Z,6.79
2022-12-23T23:33:53.444Z,6.82
2022-12-23T23:36:20.061Z,6.80
2022-12-23T23:38:46.601Z,6.82
2022-12-23T23:41:16.148Z,6.87
2022-12-23T23:43:47.062Z,6.81
2022-12-23T23:46:13.684Z,6.81
2022-12-23T23:48:40.231Z,6.78
2022-12-23T23:51:07.172Z,6.77
2022-12-23T23:53:34.030Z,6.70
2022-12-23T23:56:05.797Z,6.73
2022-12-23T23:58:32.319Z,6.67
